Latest Weather Observations for Jimna

IDQ60901

Issued at 10:21 pm EST Sunday 1 March 2015 (issued every 10 minutes, with the page automatically refreshed every 10 minutes)

About weather observations | Map of Brisbane area stations | Latest observations for Brisbane area | Other Formats
Station Details ID: 040651 Name: JIMNA FORESTRY Lat: -26.66 Lon: 152.46 Height: 523.0 m
Data from the previous 72 hours. | See also: Recent months at Jimna
Date/Time
EST
Tmp

°C
App
Tmp
°C
Dew
Point
°C
Rel
Hum
%
Delta-T

°C
Wind Press
QNH
hPa
Press
MSL
hPa
Rain
since
9 am
mm
Dir
 
Spd
km/h
Gust
km/h
Spd
kts
Gust
kts
01/10:00pm 20.3 - 18.1 87 1.4 - - - - - - - 0.0
01/09:30pm 20.7 - 18.5 87 1.4 - - - - - - - 0.0
01/09:00pm 21.1 - 18.9 87 1.4 - - - - - - - 0.0
01/08:30pm 21.4 - 19.0 86 1.5 - - - - - - - 0.0
01/08:00pm 21.7 - 18.9 84 1.8 - - - - - - - 0.0
01/07:30pm 22.1 - 18.9 82 2.1 - - - - - - - 0.0
01/07:00pm 22.7 - 19.3 81 2.2 - - - - - - - 0.0
01/06:30pm 23.4 - 19.5 79 2.5 - - - - - - - 0.0
01/06:00pm 24.2 - 19.7 76 3.0 - - - - - - - 0.0
01/05:30pm 25.0 - 19.8 73 3.4 - - - - - - - 0.0
01/05:00pm 26.5 - 18.1 60 5.4 - - - - - - - 0.0
01/04:30pm 28.7 - 18.2 53 6.8 - - - - - - - 0.0
01/04:00pm 28.6 - 18.7 55 6.5 - - - - - - - 0.0
01/03:30pm 28.9 - 16.8 48 7.7 - - - - - - - 0.0
01/03:00pm 29.7 - 16.8 45 8.3 - - - - - - - 0.0
01/02:30pm 29.1 - 16.6 46 8.0 - - - - - - - 0.0
01/02:00pm 28.2 - 16.1 47 7.6 - - - - - - - 0.0
01/01:30pm 27.7 - 15.7 48 7.5 - - - - - - - 0.0
01/01:00pm 27.3 - 16.0 50 7.1 - - - - - - - 0.0
01/12:30pm 27.4 - 17.8 55 6.2 - - - - - - - 0.0
01/12:00pm 27.1 - 20.4 66 4.5 - - - - - - - 0.0
01/11:30am 25.3 - 17.5 62 5.0 - - - - - - - 0.0
01/11:00am 26.3 - 18.4 61 5.1 - - - - - - - 0.0
01/10:30am 25.6 - 17.8 62 5.0 - - - - - - - 0.0
01/10:00am 25.4 - 18.8 67 4.3 - - - - - - - 0.0
01/09:30am 23.2 - 17.4 70 3.7 - - - - - - - 0.0
01/09:00am 24.1 - 17.8 68 4.0 - - - - - - - 0.0
01/08:30am 23.3 - 18.2 73 3.3 - - - - - - - 0.0
01/08:00am 22.0 - 19.5 86 1.6 - - - - - - - 0.0
01/07:30am 20.0 - 19.5 97 0.3 - - - - - - - 0.0
01/07:00am 19.4 - 19.2 99 0.1 - - - - - - - 0.0
01/06:30am 18.4 - 18.1 98 0.2 - - - - - - - 0.0
01/06:00am 18.2 - 17.7 97 0.3 - - - - - - - 0.0
01/05:30am 18.3 - 18.0 98 0.2 - - - - - - - 0.0
01/05:00am 18.4 - 17.9 97 0.3 - - - - - - - 0.0
01/04:30am 18.4 - 17.8 96 0.4 - - - - - - - 0.0
01/04:00am 18.7 - 17.2 91 0.9 - - - - - - - 0.0
01/03:30am 18.8 - 17.3 91 0.9 - - - - - - - 0.0
01/03:00am 19.2 - 17.9 92 0.8 - - - - - - - 0.0
01/02:30am 19.1 - 17.8 92 0.8 - - - - - - - 0.0
01/02:00am 19.3 - 18.6 96 0.4 - - - - - - - 0.0
01/01:30am 19.3 - 17.8 91 0.9 - - - - - - - 0.0
01/01:00am 19.6 - 18.3 92 0.8 - - - - - - - 0.0
01/12:30am 19.6 - 18.1 91 0.9 - - - - - - - 0.0
01/12:00am 19.7 - 18.4 92 0.8 - - - - - - - 0.0
 
Date/Time
EST
Tmp

°C
App
Tmp
°C
Dew
Point
°C
Rel
Hum
%
Delta-T

°C
Wind Press
QNH
hPa
Press
MSL
hPa
Rain
since
9 am
mm
Dir
 
Spd
km/h
Gust
km/h
Spd
kts
Gust
kts
28/11:30pm 19.7 - 18.2 91 0.9 - - - - - - - 0.0
28/11:00pm 19.7 - 18.2 91 0.9 - - - - - - - 0.0
28/10:30pm 19.8 - 18.1 90 1.1 - - - - - - - 0.0
28/10:00pm 20.0 - 18.1 89 1.2 - - - - - - - 0.0
28/09:30pm 20.2 - 18.1 88 1.3 - - - - - - - 0.0
28/09:00pm 20.4 - 18.2 87 1.4 - - - - - - - 0.0
28/08:30pm 20.5 - 18.3 87 1.4 - - - - - - - 0.0
28/08:00pm 20.7 - 18.3 86 1.5 - - - - - - - 0.0
28/07:30pm 21.0 - 18.0 83 1.9 - - - - - - - 0.0
28/07:00pm 21.5 - 18.3 82 2.0 - - - - - - - 0.0
28/06:30pm 22.0 - 18.4 80 2.3 - - - - - - - 0.0
28/06:00pm 23.0 - 18.3 75 3.0 - - - - - - - 0.0
28/05:30pm 23.5 - 18.4 73 3.3 - - - - - - - 0.0
28/05:00pm 23.9 - 18.5 72 3.5 - - - - - - - 0.0
28/04:30pm 23.9 - 18.3 71 3.6 - - - - - - - 0.0
28/04:00pm 26.5 - 18.6 62 5.1 - - - - - - - 0.0
28/03:30pm 26.9 - 18.7 60 5.4 - - - - - - - 0.0
28/03:00pm 26.1 - 18.2 61 5.1 - - - - - - - 0.0
28/02:30pm 26.9 - 19.0 62 5.2 - - - - - - - 0.0
28/02:00pm 26.8 - 19.4 64 4.9 - - - - - - - 0.0
28/01:30pm 26.9 - 18.5 60 5.5 - - - - - - - 0.0
28/01:00pm 25.4 - 19.1 68 4.1 - - - - - - - 0.0
28/12:30pm 26.6 - 20.0 67 4.4 - - - - - - - 0.0
28/12:00pm 25.4 - 17.8 62 4.9 - - - - - - - 0.0
28/11:30am 25.2 - 17.7 63 4.8 - - - - - - - 0.0
28/11:00am 25.5 - 17.7 62 5.0 - - - - - - - 0.0
28/10:30am 24.5 - 17.7 66 4.3 - - - - - - - 0.0
28/10:00am 24.8 - 19.0 70 3.8 - - - - - - - 0.0
28/09:30am 23.8 - 19.1 75 3.1 - - - - - - - 0.0
28/09:00am 22.9 - 18.0 74 3.1 - - - - - - - 0.0
28/08:30am 22.1 - 18.7 81 2.2 - - - - - - - 0.0
28/08:00am 21.8 - 18.6 82 2.1 - - - - - - - 0.0
28/07:30am 21.0 - 18.0 83 1.9 - - - - - - - 0.0
28/07:00am 19.4 - 17.7 90 1.1 - - - - - - - 0.0
28/06:30am 18.7 - 18.4 98 0.2 - - - - - - - 0.0
28/06:00am 18.5 - 18.2 98 0.2 - - - - - - - 0.0
28/05:30am 18.1 - 17.6 97 0.3 - - - - - - - 0.0
28/05:00am 18.2 - 17.9 98 0.2 - - - - - - - 0.0
28/04:30am 17.9 - 16.6 92 0.8 - - - - - - - 0.0
28/04:00am 18.1 - 16.6 91 0.9 - - - - - - - 0.0
28/03:30am 18.4 - 16.9 91 0.9 - - - - - - - 0.0
28/03:00am 18.8 - 17.3 91 0.9 - - - - - - - 0.0
28/02:30am 19.2 - 17.7 91 0.9 - - - - - - - 0.0
28/02:00am 19.2 - 17.7 91 0.9 - - - - - - - 0.0
28/01:30am 19.5 - 18.0 91 0.9 - - - - - - - 0.0
28/01:00am 19.3 - 17.8 91 0.9 - - - - - - - 0.0
28/12:30am 19.4 - 17.9 91 0.9 - - - - - - - 0.0
28/12:00am 19.5 - 17.8 90 1.1 - - - - - - - 0.0
 
Date/Time
EST
Tmp

°C
App
Tmp
°C
Dew
Point
°C
Rel
Hum
%
Delta-T

°C
Wind Press
QNH
hPa
Press
MSL
hPa
Rain
since
9 am
mm
Dir
 
Spd
km/h
Gust
km/h
Spd
kts
Gust
kts
27/11:30pm 19.5 - 18.0 91 0.9 - - - - - - - 0.0
27/11:00pm 19.6 - 17.7 89 1.2 - - - - - - - 0.0
27/10:30pm 19.9 - 18.0 89 1.2 - - - - - - - 0.0
27/10:00pm 20.2 - 18.3 89 1.2 - - - - - - - 0.0
27/09:30pm 20.3 - 18.2 88 1.3 - - - - - - - 0.0
27/09:00pm 20.3 - 18.2 88 1.3 - - - - - - - 0.0
27/08:30pm 20.2 - 18.1 88 1.3 - - - - - - - 0.0
27/08:00pm 20.1 - 18.0 88 1.3 - - - - - - - 0.0
27/07:30pm 20.5 - 17.9 85 1.6 - - - - - - - 0.0
27/07:00pm 20.9 - 18.1 84 1.8 - - - - - - - 0.0
27/06:30pm 21.4 - 18.6 84 1.8 - - - - - - - 0.0
27/06:00pm 22.1 - 18.5 80 2.3 - - - - - - - 0.0
27/05:30pm 23.2 - 18.5 75 3.0 - - - - - - - 0.0
27/05:00pm 24.2 - 19.7 76 3.0 - - - - - - - 0.0
27/04:30pm 24.0 - 18.6 72 3.5 - - - - - - - 0.0
27/04:00pm 24.3 - 18.9 72 3.5 - - - - - - - 0.0
27/03:30pm 25.2 - 18.2 65 4.5 - - - - - - - 0.0
27/03:00pm 26.8 - 18.4 60 5.5 - - - - - - - 0.0
27/02:30pm 26.4 - 19.3 65 4.7 - - - - - - - 0.0
27/02:00pm 28.1 - 18.8 57 6.1 - - - - - - - 0.0
27/01:30pm 27.1 - 18.1 58 5.8 - - - - - - - 0.0
27/01:00pm 26.9 - 17.9 57 5.8 - - - - - - - 0.0
27/12:30pm 26.7 - 18.3 60 5.4 - - - - - - - 0.0
27/12:00pm 25.7 - 17.1 59 5.5 - - - - - - - 0.0
27/11:30am 25.1 - 17.3 62 5.0 - - - - - - - 0.0
27/11:00am 24.7 - 18.2 67 4.2 - - - - - - - 0.0
27/10:30am 23.8 - 17.8 69 3.8 - - - - - - - 0.0
27/10:00am 22.5 - 18.5 78 2.6 - - - - - - - 0.0
27/09:30am 19.9 - 18.0 89 1.2 - - - - - - - 0.0
27/09:00am 19.1 - 17.6 91 0.9 - - - - - - - 40.8
27/08:30am 18.4 - 17.8 96 0.4 - - - - - - - 40.8
27/08:00am 18.1 - 17.3 95 0.5 - - - - - - - 40.8
27/07:30am 17.8 - 17.0 95 0.5 - - - - - - - 40.0
27/07:00am 18.0 - 17.2 95 0.5 - - - - - - - 37.6
27/06:30am 18.0 - 16.7 92 0.8 - - - - - - - 36.4
27/06:00am 18.7 - 17.2 91 0.9 - - - - - - - 4.0
27/05:30am 19.2 - 17.3 89 1.2 - - - - - - - 0.0
27/05:00am 19.4 - 17.7 90 1.1 - - - - - - - 0.0
27/04:30am 19.4 - 17.9 91 0.9 - - - - - - - 0.0
27/04:00am 19.3 - 17.6 90 1.1 - - - - - - - 0.0
27/03:30am 19.6 - 17.9 90 1.1 - - - - - - - 0.0
27/03:00am 19.4 - 17.7 90 1.1 - - - - - - - 0.0
27/02:30am 19.2 - 17.7 91 0.9 - - - - - - - 0.0
27/02:00am 19.1 - 17.6 91 0.9 - - - - - - - 0.0
27/01:30am 19.2 - 17.5 90 1.1 - - - - - - - 0.0
27/01:00am 19.5 - 17.8 90 1.1 - - - - - - - 0.0
27/12:30am 19.3 - 17.6 90 1.1 - - - - - - - 0.0
27/12:00am 19.2 - 17.5 90 1.1 - - - - - - - 0.0
 
Date/Time
EST
Tmp

°C
App
Tmp
°C
Dew
Point
°C
Rel
Hum
%
Delta-T

°C
Wind Press
QNH
hPa
Press
MSL
hPa
Rain
since
9 am
mm
Dir
 
Spd
km/h
Gust
km/h
Spd
kts
Gust
kts
26/11:30pm 19.4 - 17.5 89 1.2 - - - - - - - 0.0
26/11:00pm 19.6 - 17.6 88 1.3 - - - - - - - 0.0
26/10:30pm 20.0 - 17.8 87 1.4 - - - - - - - 0.0

Latest Capital City Observations: Canberra | Sydney | Melbourne | Brisbane | Adelaide | Perth | Hobart | Darwin

Other Formats:

Comma delimited format used in spreadsheet applications
http://www.bom.gov.au/fwo/IDQ60901/IDQ60901.94557.axf

JavaScript Object Notation format (JSON) in row-major order
http://www.bom.gov.au/fwo/IDQ60901/IDQ60901.94557.json